Ana Sayfa
METAR-TAF:

METAR-TAF

Havaalanları :

Penn Yan Airport

Penn Yan, New York, Amerika Birleşik Devletleri

Enlem: 42-38-35N, Boylam: 077-02-58W, yükseklik: 275 m

Güncel hava durumu gözlemi

Rapor saat 16:53 UTC de 32 dakika önce yapıldı.
Rüzgar güney/güneybatıdan 7 kt
Sıcaklık 30°C
Nem 70%
Basınç 1012 hPa
Görüş mesafesi: 16.1 km
3700 ft yükseklikte parçalı çok bulutlu
5000 ft yükseklikte parçalı çok bulutlu

METAR: KPEO 191653Z AUTO 20007KT 10SM BKN037 BKN050 30/24 A2988 RMK AO2 SLP108 T03000244

Saat: 13:25 (17:25 UTC)


TAF: eksik

4.000'den fazla havaalanı için hava durumu gözlemleri ve tahminleri (METAR ve TAF raporları).

Kullanılabilir istasyonlar harita üzerinde sarı ve kırmızı noktalarla gösterilir.

İstasyonun adını görmek için fareyi noktanın üzerinde gezdirin.

Sonrasında hava gözlem ve tahminlerini görmek için tıklayın.

Haritayı değiştirmek için: yaklaştırmak için siyah artı işaretli yeşil düğmeye ve uzaklaştırmak için de eksi işaretli düğmeye hızla tıklayın; bitişik haritalar için yeşil okları kullanın.


METAR-TAF: